createdAt,value
2023-01-15T00:02:13.431Z,13.20
2023-01-15T00:04:40.140Z,11.90
2023-01-15T00:07:06.722Z,11.30
2023-01-15T00:09:33.315Z,12.60
2023-01-15T00:12:00.907Z,11.60
2023-01-15T00:14:27.583Z,10.10
2023-01-15T00:16:54.180Z,12.10
2023-01-15T00:19:20.814Z,12.10
2023-01-15T00:21:47.445Z,8.80
2023-01-15T00:24:33.024Z,9.10
2023-01-15T00:27:18.747Z,13.40
2023-01-15T00:29:46.575Z,11.60
2023-01-15T00:32:13.177Z,12.10
2023-01-15T00:34:39.996Z,12.60
2023-01-15T00:37:06.672Z,9.00
2023-01-15T00:39:34.644Z,12.90
2023-01-15T00:42:01.390Z,10.90
2023-01-15T00:44:28.042Z,9.30
2023-01-15T00:46:54.637Z,9.80
2023-01-15T00:49:21.216Z,9.30
2023-01-15T00:51:50.039Z,11.90
2023-01-15T00:54:17.041Z,7.60
2023-01-15T00:56:43.692Z,7.40
2023-01-15T00:59:10.407Z,7.30
2023-01-15T01:01:37.627Z,10.30
2023-01-15T01:04:05.399Z,8.60
2023-01-15T01:06:32.082Z,8.10
2023-01-15T01:08:59.254Z,7.90
2023-01-15T01:11:26.969Z,8.90
2023-01-15T01:13:54.472Z,7.30
2023-01-15T01:16:21.145Z,6.60
2023-01-15T01:18:47.815Z,7.90
2023-01-15T01:21:15.031Z,4.80
2023-01-15T01:23:41.630Z,6.70
2023-01-15T01:26:08.286Z,9.40
2023-01-15T01:28:34.877Z,9.50
2023-01-15T01:31:04.556Z,6.20
2023-01-15T01:33:31.144Z,7.10
2023-01-15T01:35:57.738Z,9.30
2023-01-15T01:38:24.367Z,9.50
2023-01-15T01:40:51.010Z,6.40
2023-01-15T01:43:19.482Z,8.30
2023-01-15T01:45:46.131Z,14.80
2023-01-15T01:48:12.788Z,10.10
2023-01-15T01:50:39.598Z,22.40
2023-01-15T01:53:13.501Z,13.30
2023-01-15T01:55:40.745Z,19.80
2023-01-15T01:58:09.918Z,10.90
2023-01-15T02:00:36.596Z,11.50
2023-01-15T02:03:03.287Z,9.70
2023-01-15T02:05:33.971Z,14.30
2023-01-15T02:08:02.384Z,9.70
2023-01-15T02:10:29.448Z,12.30
2023-01-15T02:13:08.169Z,12.50
2023-01-15T02:15:43.661Z,16.10
2023-01-15T02:18:24.028Z,8.10
2023-01-15T02:20:51.775Z,7.60
2023-01-15T02:25:20.478Z,7.80
2023-01-15T02:27:49.958Z,10.30
2023-01-15T02:30:18.244Z,7.30
2023-01-15T02:32:55.416Z,6.60
2023-01-15T02:35:29.936Z,8.30
2023-01-15T02:37:58.015Z,11.70
2023-01-15T02:40:24.799Z,9.10
2023-01-15T02:42:51.651Z,9.00
2023-01-15T02:45:24.251Z,10.20
2023-01-15T02:47:51.259Z,8.30
2023-01-15T02:50:18.130Z,8.50
2023-01-15T02:52:46.010Z,11.80
2023-01-15T02:55:14.343Z,10.90
2023-01-15T02:57:43.652Z,11.20
2023-01-15T03:00:11.216Z,11.20
2023-01-15T03:02:40.380Z,9.70
2023-01-15T03:05:23.678Z,10.00
2023-01-15T03:08:00.313Z,11.90
2023-01-15T03:10:36.631Z,11.50
2023-01-15T03:13:03.983Z,13.50
2023-01-15T03:15:59.125Z,10.10
2023-01-15T03:18:28.189Z,9.80
2023-01-15T03:20:58.698Z,12.70
2023-01-15T03:23:25.548Z,11.60
2023-01-15T03:25:53.598Z,10.70
2023-01-15T03:28:22.006Z,10.50
2023-01-15T03:30:48.727Z,10.60
2023-01-15T03:33:15.372Z,9.50
2023-01-15T03:35:46.740Z,14.80
2023-01-15T03:38:19.716Z,14.10
2023-01-15T03:40:53.093Z,12.10
2023-01-15T03:43:38.887Z,13.70
2023-01-15T03:46:07.821Z,11.40
2023-01-15T03:48:35.317Z,21.10
2023-01-15T03:51:10.162Z,22.20
2023-01-15T03:53:38.855Z,14.90
2023-01-15T03:56:10.391Z,14.50
2023-01-15T03:58:45.456Z,16.70
2023-01-15T04:01:15.273Z,13.20
2023-01-15T04:03:42.252Z,15.10
2023-01-15T04:06:08.926Z,12.70
2023-01-15T04:08:38.182Z,10.30
2023-01-15T04:11:04.938Z,17.70
2023-01-15T04:13:37.371Z,15.70
2023-01-15T04:16:04.637Z,13.40
2023-01-15T04:21:05.570Z,16.20
2023-01-15T04:23:34.570Z,15.80
2023-01-15T04:26:01.123Z,16.10
2023-01-15T04:28:27.713Z,19.00
2023-01-15T04:30:56.683Z,21.70
2023-01-15T04:33:23.321Z,19.80
2023-01-15T04:35:49.892Z,17.80
2023-01-15T04:38:18.109Z,18.80
2023-01-15T04:41:03.646Z,18.90
2023-01-15T04:43:49.052Z,23.80
2023-01-15T04:46:15.801Z,21.30
2023-01-15T04:48:42.469Z,22.30
2023-01-15T04:51:09.308Z,24.60
2023-01-15T04:53:35.944Z,21.50
2023-01-15T04:56:03.221Z,20.30
2023-01-15T04:58:29.903Z,19.20
2023-01-15T05:00:56.765Z,20.60
2023-01-15T05:03:23.405Z,23.20
2023-01-15T05:05:50.762Z,18.90
2023-01-15T05:08:17.359Z,22.60
2023-01-15T05:10:43.962Z,22.70
2023-01-15T05:13:10.540Z,23.70
2023-01-15T05:15:38.546Z,26.90
2023-01-15T05:18:05.212Z,23.10
2023-01-15T05:20:31.803Z,20.90
2023-01-15T05:22:58.397Z,22.60
2023-01-15T05:25:25.017Z,22.00
2023-01-15T05:27:51.623Z,20.90
2023-01-15T05:30:18.369Z,22.20
2023-01-15T05:32:44.942Z,23.00
2023-01-15T05:35:11.566Z,21.20
2023-01-15T05:37:38.439Z,21.40
2023-01-15T05:40:05.891Z,21.10
2023-01-15T05:42:32.467Z,20.80
2023-01-15T05:44:59.093Z,23.90
2023-01-15T05:47:25.678Z,19.50
2023-01-15T05:49:52.371Z,21.20
2023-01-15T05:52:19.024Z,18.70
2023-01-15T05:54:45.639Z,19.30
2023-01-15T05:57:12.908Z,22.60
2023-01-15T05:59:39.564Z,16.30
2023-01-15T06:02:06.175Z,19.60
2023-01-15T06:04:32.758Z,17.10
2023-01-15T06:06:59.362Z,16.10
2023-01-15T06:09:27.829Z,17.60
2023-01-15T06:11:55.268Z,17.20
2023-01-15T06:14:21.957Z,15.80
2023-01-15T06:16:48.637Z,22.20
2023-01-15T06:19:15.302Z,17.80
2023-01-15T06:21:41.919Z,15.00
2023-01-15T06:24:08.757Z,13.40
2023-01-15T06:26:35.397Z,12.70
2023-01-15T06:29:01.994Z,14.60
2023-01-15T06:31:28.784Z,15.30
2023-01-15T06:33:55.649Z,15.40
2023-01-15T06:36:22.883Z,19.80
2023-01-15T06:38:49.600Z,18.80
2023-01-15T06:44:35.190Z,23.10
2023-01-15T06:47:20.528Z,23.00
2023-01-15T06:49:47.437Z,26.00
2023-01-15T06:52:14.017Z,24.50
2023-01-15T06:54:40.612Z,24.60
2023-01-15T06:57:07.197Z,24.40
2023-01-15T06:59:33.799Z,24.50
2023-01-15T07:02:00.536Z,30.20
2023-01-15T07:04:27.161Z,29.70
2023-01-15T07:06:53.822Z,25.90
2023-01-15T07:09:20.497Z,26.60
2023-01-15T07:11:50.081Z,24.20
2023-01-15T07:14:20.715Z,23.90
2023-01-15T07:16:47.389Z,27.50
2023-01-15T07:19:14.429Z,30.00
2023-01-15T07:21:41.194Z,23.80
2023-01-15T07:24:08.026Z,28.80
2023-01-15T07:26:34.655Z,26.40
2023-01-15T07:29:01.259Z,24.10
2023-01-15T07:31:27.942Z,25.10
2023-01-15T07:33:55.649Z,26.40
2023-01-15T07:36:22.471Z,25.10
2023-01-15T07:38:49.038Z,26.00
2023-01-15T07:41:34.691Z,22.90
2023-01-15T07:44:20.173Z,22.30
2023-01-15T07:47:05.737Z,23.60
2023-01-15T07:49:48.745Z,22.60
2023-01-15T07:52:19.404Z,19.50
2023-01-15T07:54:46.239Z,23.10
2023-01-15T07:57:13.432Z,19.70
2023-01-15T07:59:40.062Z,21.20
2023-01-15T08:02:06.769Z,26.50
2023-01-15T08:04:33.649Z,17.90
2023-01-15T08:07:01.302Z,14.30
2023-01-15T08:09:28.001Z,13.30
2023-01-15T08:12:13.313Z,19.00
2023-01-15T08:14:58.986Z,13.00
2023-01-15T08:17:25.613Z,14.70
2023-01-15T08:19:52.251Z,16.40
2023-01-15T08:22:18.829Z,14.10
2023-01-15T08:24:45.374Z,16.20
2023-01-15T08:27:12.262Z,17.10
2023-01-15T08:29:38.845Z,15.20
2023-01-15T08:32:05.586Z,16.50
2023-01-15T08:34:32.217Z,13.50
2023-01-15T08:37:00.269Z,14.40
2023-01-15T08:39:27.494Z,15.00
2023-01-15T08:41:54.612Z,14.80
2023-01-15T08:44:21.777Z,13.50
2023-01-15T08:46:48.743Z,12.80
2023-01-15T08:49:15.472Z,21.50
2023-01-15T08:51:42.202Z,22.10
2023-01-15T08:54:08.774Z,21.80
2023-01-15T08:56:35.580Z,15.70
2023-01-15T08:59:06.019Z,17.10
2023-01-15T09:01:32.677Z,16.70
2023-01-15T09:03:59.430Z,19.40
2023-01-15T09:06:26.288Z,15.30
2023-01-15T09:08:53.074Z,15.70
2023-01-15T09:11:19.694Z,51.60
2023-01-15T09:13:47.673Z,16.70
2023-01-15T09:16:14.332Z,16.00
2023-01-15T09:18:41.525Z,17.80
2023-01-15T09:21:08.104Z,16.20
2023-01-15T09:25:16.500Z,16.10
2023-01-15T09:27:43.370Z,18.50
2023-01-15T09:30:11.621Z,16.70
2023-01-15T09:32:38.713Z,18.40
2023-01-15T09:35:05.558Z,18.80
2023-01-15T09:37:32.240Z,15.40
2023-01-15T09:39:58.885Z,16.50
2023-01-15T09:42:28.955Z,17.40
2023-01-15T09:44:55.568Z,20.10
2023-01-15T09:47:34.716Z,23.20
2023-01-15T09:50:10.696Z,16.10
2023-01-15T09:52:46.543Z,19.00
2023-01-15T09:55:13.996Z,14.50
2023-01-15T09:57:40.573Z,14.90
2023-01-15T10:00:07.509Z,13.50
2023-01-15T10:02:44.067Z,12.80
2023-01-15T10:05:11.842Z,8.40
2023-01-15T10:07:43.909Z,10.70
2023-01-15T10:10:11.906Z,18.40
2023-01-15T10:12:40.133Z,10.60
2023-01-15T10:15:22.536Z,13.50
2023-01-15T10:17:50.233Z,12.60
2023-01-15T10:20:18.188Z,13.40
2023-01-15T10:23:00.961Z,12.10
2023-01-15T10:25:29.017Z,10.20
2023-01-15T10:27:55.585Z,18.50
2023-01-15T10:30:29.222Z,16.30
2023-01-15T10:33:02.356Z,16.70
2023-01-15T10:35:31.442Z,14.20
2023-01-15T10:38:15.014Z,12.20
2023-01-15T10:40:44.684Z,13.10
2023-01-15T10:43:43.938Z,12.80
2023-01-15T10:46:14.419Z,9.40
2023-01-15T10:48:57.503Z,9.20
2023-01-15T10:51:24.873Z,9.10
2023-01-15T10:54:03.392Z,7.30
2023-01-15T10:56:34.195Z,13.10
2023-01-15T10:59:22.158Z,5.60
2023-01-15T11:01:50.074Z,6.00
2023-01-15T11:04:16.784Z,7.40
2023-01-15T11:06:43.422Z,5.40
2023-01-15T11:09:17.804Z,11.30
2023-01-15T11:12:00.753Z,6.40
2023-01-15T11:14:58.958Z,10.70
2023-01-15T11:17:47.651Z,7.40
2023-01-15T11:20:18.252Z,5.80
2023-01-15T11:22:45.115Z,12.00
2023-01-15T11:25:11.785Z,5.90
2023-01-15T11:27:38.373Z,8.50
2023-01-15T11:30:06.110Z,9.50
2023-01-15T11:32:33.871Z,8.30
2023-01-15T11:35:04.708Z,7.50
2023-01-15T11:37:31.424Z,7.20
2023-01-15T11:40:03.899Z,6.70
2023-01-15T11:42:49.328Z,8.40
2023-01-15T11:45:38.460Z,12.70
2023-01-15T11:48:40.057Z,10.10
2023-01-15T11:51:08.166Z,8.10
2023-01-15T11:53:55.045Z,21.70
2023-01-15T11:56:23.456Z,9.60
2023-01-15T11:58:50.788Z,22.50
2023-01-15T12:01:28.963Z,21.90
2023-01-15T12:03:55.731Z,9.90
2023-01-15T12:06:22.508Z,36.60
2023-01-15T12:08:52.947Z,20.20
2023-01-15T12:11:27.097Z,12.70
2023-01-15T12:13:58.138Z,14.70
2023-01-15T12:16:34.317Z,10.00
2023-01-15T12:19:07.142Z,13.60
2023-01-15T12:21:52.278Z,16.20
2023-01-15T12:24:31.435Z,16.90
2023-01-15T12:27:30.943Z,35.90
2023-01-15T12:29:59.340Z,30.40
2023-01-15T12:32:33.830Z,19.30
2023-01-15T12:35:07.695Z,18.40
2023-01-15T12:37:45.087Z,12.40
2023-01-15T12:40:14.697Z,12.00
2023-01-15T12:43:00.738Z,23.20
2023-01-15T12:45:29.024Z,13.10
2023-01-15T12:48:02.508Z,10.60
2023-01-15T12:50:32.742Z,24.80
2023-01-15T12:52:59.385Z,17.50
2023-01-15T12:55:29.654Z,19.30
2023-01-15T12:58:00.297Z,13.30
2023-01-15T13:00:35.492Z,11.60
2023-01-15T13:03:05.553Z,12.80
2023-01-15T13:05:47.859Z,13.30
2023-01-15T13:08:23.765Z,13.90
2023-01-15T13:10:51.025Z,13.90
2023-01-15T13:13:18.721Z,12.20
2023-01-15T13:15:57.820Z,10.90
2023-01-15T13:18:27.106Z,12.50
2023-01-15T13:20:55.793Z,10.70
2023-01-15T13:23:41.487Z,9.10
2023-01-15T13:26:17.415Z,11.40
2023-01-15T13:28:52.145Z,10.90
2023-01-15T13:33:49.255Z,10.70
2023-01-15T13:36:17.331Z,9.90
2023-01-15T13:38:45.476Z,11.50
2023-01-15T13:41:13.557Z,8.60
2023-01-15T13:43:41.135Z,11.70
2023-01-15T13:46:08.571Z,9.70
2023-01-15T13:48:45.619Z,11.80
2023-01-15T13:51:26.861Z,11.10
2023-01-15T13:53:53.515Z,14.50
2023-01-15T13:56:31.409Z,10.30
2023-01-15T13:59:02.039Z,13.60
2023-01-15T14:01:34.051Z,11.10
2023-01-15T14:04:00.731Z,10.50
2023-01-15T14:06:43.770Z,12.50
2023-01-15T14:09:11.140Z,12.40
2023-01-15T14:11:40.833Z,13.20
2023-01-15T14:14:07.392Z,10.30
2023-01-15T14:16:57.246Z,10.30
2023-01-15T14:19:23.869Z,8.00
2023-01-15T16:22:03.931Z,12.60
2023-01-15T16:24:30.702Z,21.40
2023-01-15T16:27:14.016Z,12.40
2023-01-15T16:29:40.858Z,12.00
2023-01-15T16:32:13.953Z,13.00
2023-01-15T16:34:40.682Z,15.80
2023-01-15T16:37:22.546Z,11.80
2023-01-15T16:39:49.606Z,9.10
2023-01-15T16:42:34.935Z,5.90
2023-01-15T16:45:04.212Z,9.20
2023-01-15T16:47:33.359Z,9.90
2023-01-15T16:50:22.358Z,8.00
2023-01-15T16:52:56.843Z,10.10
2023-01-15T16:55:43.226Z,7.90
2023-01-15T16:58:13.175Z,8.20
2023-01-15T17:00:47.937Z,11.70
2023-01-15T17:03:16.797Z,11.20
2023-01-15T17:05:43.823Z,11.90
2023-01-15T17:08:16.300Z,13.20
2023-01-15T17:10:51.965Z,12.10
2023-01-15T17:13:19.245Z,55.50
2023-01-15T17:15:46.383Z,55.80
2023-01-15T17:18:21.653Z,15.50
2023-01-15T17:20:48.512Z,21.60
2023-01-15T17:23:15.503Z,12.50
2023-01-15T17:25:42.231Z,11.70
2023-01-15T17:28:09.200Z,8.00
2023-01-15T17:30:35.991Z,5.60
2023-01-15T17:33:04.332Z,5.20
2023-01-15T17:35:32.680Z,7.70
2023-01-15T17:37:59.433Z,8.20
2023-01-15T17:40:27.020Z,13.10
2023-01-15T17:42:59.202Z,13.20
2023-01-15T17:45:27.643Z,11.90
2023-01-15T17:47:54.421Z,12.70
2023-01-15T17:50:21.293Z,10.40
2023-01-15T17:52:48.124Z,7.70
2023-01-15T17:55:38.215Z,7.00
2023-01-15T17:58:23.763Z,7.00
2023-01-15T18:04:59.780Z,8.20
2023-01-15T18:07:27.992Z,9.80
2023-01-15T18:09:56.293Z,6.30
2023-01-15T18:12:23.508Z,10.90
2023-01-15T18:14:50.359Z,7.10
2023-01-15T18:17:17.104Z,6.70
2023-01-15T18:19:43.815Z,7.20
2023-01-15T18:22:12.673Z,10.50
2023-01-15T18:24:40.096Z,8.40
2023-01-15T18:27:06.826Z,11.50
2023-01-15T18:29:36.132Z,18.50
2023-01-15T18:32:02.901Z,5.90
2023-01-15T18:34:29.564Z,10.90
2023-01-15T18:36:56.317Z,7.00
2023-01-15T18:39:23.045Z,17.60
2023-01-15T18:41:49.882Z,12.10
2023-01-15T18:44:36.843Z,12.30
2023-01-15T18:47:05.602Z,14.10
2023-01-15T18:49:32.331Z,15.30
2023-01-15T18:52:17.854Z,9.80
2023-01-15T18:54:44.655Z,13.00
2023-01-15T18:57:11.599Z,35.10
2023-01-15T18:59:38.445Z,9.00
2023-01-15T19:02:05.331Z,7.50
2023-01-15T19:04:32.098Z,6.80
2023-01-15T19:06:58.817Z,9.00
2023-01-15T19:09:25.854Z,4.70
2023-01-15T19:11:52.908Z,4.40
2023-01-15T19:14:39.132Z,6.30
2023-01-15T19:17:25.288Z,5.40
2023-01-15T19:19:52.051Z,13.20
2023-01-15T19:22:37.597Z,8.10
2023-01-15T19:25:04.944Z,4.10
2023-01-15T19:27:31.731Z,9.00
2023-01-15T19:30:00.087Z,10.80
2023-01-15T19:32:26.858Z,6.00
2023-01-15T19:34:53.575Z,6.20
2023-01-15T19:37:22.977Z,5.90
2023-01-15T19:39:49.710Z,4.70
2023-01-15T19:42:35.305Z,4.20
2023-01-15T19:45:20.988Z,5.30
2023-01-15T19:48:06.592Z,6.70
2023-01-15T19:50:38.115Z,6.60
2023-01-15T19:53:05.275Z,5.50
2023-01-15T19:55:32.279Z,6.20
2023-01-15T19:58:00.620Z,6.40
2023-01-15T20:00:27.506Z,7.40
2023-01-15T20:02:55.214Z,9.70
2023-01-15T20:05:22.163Z,11.60
2023-01-15T20:07:48.891Z,14.00
2023-01-15T20:10:17.317Z,20.30
2023-01-15T20:13:02.932Z,20.70
2023-01-15T20:15:29.733Z,13.30
2023-01-15T20:17:56.840Z,14.90
2023-01-15T20:20:24.335Z,7.50
2023-01-15T20:22:51.191Z,18.50
2023-01-15T20:25:18.071Z,14.70
2023-01-15T20:27:44.741Z,12.00
2023-01-15T20:30:13.970Z,9.90
2023-01-15T20:32:42.425Z,12.40
2023-01-15T20:35:11.433Z,7.10
2023-01-15T20:37:38.194Z,14.30
2023-01-15T20:40:05.516Z,11.70
2023-01-15T20:42:51.048Z,5.90
2023-01-15T20:45:17.781Z,9.80
2023-01-15T20:48:03.282Z,15.00
2023-01-15T20:50:33.605Z,9.30
2023-01-15T20:53:00.340Z,9.30
2023-01-15T20:55:54.806Z,8.90
2023-01-15T20:58:23.999Z,11.10
2023-01-15T21:00:50.903Z,8.90
2023-01-15T21:03:18.146Z,8.50
2023-01-15T21:05:44.939Z,10.00
2023-01-15T21:08:12.006Z,9.20
2023-01-15T21:10:39.812Z,6.30
2023-01-15T21:13:06.488Z,6.30
2023-01-15T21:15:33.256Z,2.80
2023-01-15T21:17:59.958Z,6.00
2023-01-15T21:20:26.766Z,6.10
2023-01-15T21:22:53.492Z,7.40
2023-01-15T21:25:20.150Z,5.20
2023-01-15T21:27:46.843Z,6.30
2023-01-15T21:30:13.951Z,6.10
2023-01-15T21:32:40.632Z,3.10
2023-01-15T21:35:07.699Z,4.60
2023-01-15T21:37:34.504Z,4.70
2023-01-15T21:40:01.162Z,4.90
2023-01-15T21:42:46.946Z,5.80
2023-01-15T21:45:13.668Z,3.80
2023-01-15T21:47:41.658Z,5.20
2023-01-15T21:50:09.310Z,4.90
2023-01-15T21:52:35.976Z,4.10
2023-01-15T21:55:02.794Z,3.90
2023-01-15T21:57:30.043Z,3.40
2023-01-15T21:59:56.777Z,4.20
2023-01-15T22:02:23.662Z,3.30
2023-01-15T22:04:50.604Z,6.60
2023-01-15T22:07:18.025Z,6.20
2023-01-15T22:09:44.771Z,7.20
2023-01-15T22:12:12.570Z,9.00
2023-01-15T22:14:39.206Z,6.50
2023-01-15T22:17:06.370Z,7.20
2023-01-15T22:19:33.433Z,4.70
2023-01-15T22:22:05.118Z,6.20
2023-01-15T22:24:37.911Z,5.50
2023-01-15T22:27:06.604Z,7.70
2023-01-15T22:29:38.356Z,12.10
2023-01-15T22:32:06.058Z,9.70
2023-01-15T22:34:32.733Z,10.70
2023-01-15T22:36:59.595Z,8.20
2023-01-15T22:39:26.541Z,7.80
2023-01-15T22:42:12.264Z,14.20
2023-01-15T22:44:39.260Z,9.40
2023-01-15T22:47:06.392Z,11.70
2023-01-15T22:49:33.131Z,10.90
2023-01-15T22:51:59.874Z,10.70
2023-01-15T22:54:26.549Z,9.90
2023-01-15T22:56:53.208Z,11.90
2023-01-15T22:59:20.156Z,11.70
2023-01-15T23:01:47.042Z,7.90
2023-01-15T23:04:15.521Z,11.50
2023-01-15T23:06:42.280Z,10.90
2023-01-15T23:09:09.071Z,8.30
2023-01-15T23:11:35.837Z,12.40
2023-01-15T23:14:02.701Z,13.90
2023-01-15T23:16:29.365Z,10.30
2023-01-15T23:18:56.055Z,15.00
2023-01-15T23:21:23.798Z,18.10
2023-01-15T23:23:57.540Z,16.70
2023-01-15T23:26:24.994Z,11.50
2023-01-15T23:28:51.702Z,15.20
2023-01-15T23:31:19.083Z,12.60
2023-01-15T23:33:45.911Z,14.10
2023-01-15T23:36:13.298Z,11.00
2023-01-15T23:38:41.350Z,11.30
2023-01-15T23:41:09.253Z,9.60
2023-01-15T23:43:54.833Z,14.50
2023-01-15T23:46:21.623Z,10.60
2023-01-15T23:48:48.278Z,12.30
2023-01-15T23:51:15.063Z,13.10
2023-01-15T23:53:41.839Z,10.30
2023-01-15T23:56:08.809Z,9.50
2023-01-15T23:58:35.550Z,12.10
